Garden Grove, California
Current Conditions -  °F | °C
As of 2:53 AM on Saturday 20 Dec 2014 (Local Time) from KFUL Reporting Station
Clear Clear  
Wind Chill: 51°   Ceiling: Unl
Heat Index: 51°   Visibility: 8mi
Dew Point: 47°   Wind: 0mph
Humidity: 86%   Direction: NA
Pressure: 30.15"   Gusts: NA
Location:  33.78°N, 117.93°W
Report Text: KFUL 201053Z 00000KT 8SM CLR 11/08 A3015 RMK AO2 SLP209 T01060083
Loading
Personal Weather Stations






























Interactive Weather Map New forecast layout! Learn more

10-Day Weather Forecast

Advertisements
Track Severe Weather on mobile